Time;durP1;ratioP1;P1;durP2;ratioP2;P2;SDS_P1;SDS_P2;PMS_P1;PMS_P2;Temp;Humidity;BMP_temperature;BMP_pressure;BME280_temperature;BME280_humidity;BME280_pressure;Samples;Min_cycle;Max_cycle;Signal;HPM_P1;HPM_P2
2023/04/25 00:01:53;;;;;;;20.50;4.40;;;;;;;;;;4868299;29;20034;-85
2023/04/25 00:04:21;;;;;;;18.63;4.20;;;;;;;;;;4858158;29;20046;-86
2023/04/25 00:06:47;;;;;;;14.85;3.17;;;;;;;;;;4835552;29;20041;-85
2023/04/25 00:09:13;;;;;;;24.55;4.22;;;;;;;;;;4860492;29;20035;-84
2023/04/25 00:11:39;;;;;;;29.33;4.32;;;;;;;;;;4842327;29;20458;-85
2023/04/25 00:14:06;;;;;;;28.77;3.70;;;;;;;;;;4845005;29;20042;-85
2023/04/25 00:16:34;;;;;;;23.70;4.07;;;;;;;;;;4853414;29;20045;-86
2023/04/25 00:19:02;;;;;;;23.15;4.72;;;;;;;;;;4852022;29;20034;-85
2023/04/25 00:21:28;;;;;;;25.08;3.42;;;;;;;;;;4842722;29;20546;-84
2023/04/25 00:23:54;;;;;;;28.08;4.85;;;;;;;;;;4856863;29;20057;-84
2023/04/25 00:26:23;;;;;;;22.40;3.03;;;;;;;;;;4858795;29;20057;-85
2023/04/25 00:28:49;;;;;;;30.08;3.97;;;;;;;;;;4832334;29;20058;-85
2023/04/25 00:31:15;;;;;;;29.58;4.45;;;;;;;;;;4816697;29;20039;-85
2023/04/25 00:33:41;;;;;;;21.70;3.25;;;;;;;;;;4819083;29;20038;-84
2023/04/25 00:36:08;;;;;;;32.63;5.70;;;;;;;;;;4812235;29;20118;-84
2023/04/25 00:38:34;;;;;;;20.48;3.10;;;;;;;;;;4820941;29;20041;-86
2023/04/25 00:41:00;;;;;;;28.00;4.78;;;;;;;;;;4816387;29;20034;-84
2023/04/25 00:43:27;;;;;;;24.23;3.28;;;;;;;;;;4819278;29;20544;-84
2023/04/25 00:45:53;;;;;;;18.63;4.00;;;;;;;;;;4829842;29;20070;-84
2023/04/25 00:48:22;;;;;;;24.77;4.72;;;;;;;;;;4816118;29;20026;-84
2023/04/25 00:50:53;;;;;;;18.52;3.15;;;;;;;;;;4823047;29;20097;-83
2023/04/25 00:53:20;;;;;;;18.67;3.50;;;;;;;;;;4816836;29;20177;-83
2023/04/25 00:55:46;;;;;;;21.95;3.40;;;;;;;;;;4822993;29;20448;-83
2023/04/25 00:58:12;;;;;;;28.40;5.80;;;;;;;;;;4817091;29;20441;-82
2023/04/25 01:00:38;;;;;;;24.27;3.58;;;;;;;;;;4821199;29;20046;-83
2023/04/25 01:03:04;;;;;;;23.23;3.53;;;;;;;;;;4817376;29;20633;-82
2023/04/25 01:05:30;;;;;;;19.73;2.92;;;;;;;;;;4817956;29;20034;-83
2023/04/25 01:07:57;;;;;;;13.70;2.83;;;;;;;;;;4819562;29;20041;-83
2023/04/25 01:10:23;;;;;;;25.00;3.80;;;;;;;;;;4818269;29;20468;-83
2023/04/25 01:12:49;;;;;;;18.48;3.58;;;;;;;;;;4819348;29;20034;-84
2023/04/25 01:15:16;;;;;;;20.05;2.90;;;;;;;;;;4818874;29;20145;-84
2023/04/25 01:17:43;;;;;;;19.05;3.80;;;;;;;;;;4837906;29;20117;-84
2023/04/25 01:20:10;;;;;;;28.60;5.65;;;;;;;;;;4819531;29;20046;-83
2023/04/25 01:22:36;;;;;;;23.42;2.85;;;;;;;;;;4811990;29;20370;-84
2023/04/25 01:25:02;;;;;;;23.67;3.55;;;;;;;;;;4806762;29;20106;-85
2023/04/25 01:27:29;;;;;;;18.50;2.97;;;;;;;;;;4809125;29;20038;-83
2023/04/25 01:29:55;;;;;;;20.98;3.70;;;;;;;;;;4815208;29;20452;-84
2023/04/25 01:32:23;;;;;;;13.77;2.85;;;;;;;;;;4820327;29;20500;-84
2023/04/25 01:34:49;;;;;;;24.98;3.33;;;;;;;;;;4815576;29;20038;-84
2023/04/25 01:37:15;;;;;;;15.80;3.50;;;;;;;;;;4822982;29;20046;-83
2023/04/25 01:39:41;;;;;;;17.83;3.88;;;;;;;;;;4824882;29;20049;-85
2023/04/25 01:42:07;;;;;;;19.50;2.88;;;;;;;;;;4815202;29;20417;-84
2023/04/25 01:44:33;;;;;;;19.45;2.67;;;;;;;;;;4824617;29;20045;-85
2023/04/25 01:46:59;;;;;;;16.70;3.17;;;;;;;;;;4836170;29;20027;-87
2023/04/25 01:49:25;;;;;;;23.70;5.10;;;;;;;;;;4828510;29;20396;-87
2023/04/25 01:51:51;;;;;;;17.65;3.60;;;;;;;;;;4824855;29;20043;-86
2023/04/25 01:54:17;;;;;;;20.27;2.45;;;;;;;;;;4816683;29;20038;-85
2023/04/25 01:56:43;;;;;;;14.77;2.30;;;;;;;;;;4815936;29;20042;-86
2023/04/25 01:59:09;;;;;;;15.75;2.45;;;;;;;;;;4814103;29;20030;-86
2023/04/25 02:01:35;;;;;;;17.50;2.33;;;;;;;;;;4825200;29;20376;-87
2023/04/25 02:04:01;;;;;;;20.25;3.05;;;;;;;;;;4817270;29;20042;-86
2023/04/25 02:06:27;;;;;;;13.88;2.17;;;;;;;;;;4818716;29;20038;-85
2023/04/25 02:08:53;;;;;;;12.32;2.35;;;;;;;;;;4823142;29;20073;-84
2023/04/25 02:11:21;;;;;;;22.17;2.55;;;;;;;;;;4820875;29;20164;-84
2023/04/25 02:13:47;;;;;;;16.67;2.65;;;;;;;;;;4810184;29;20085;-84
2023/04/25 02:16:13;;;;;;;16.52;2.55;;;;;;;;;;4828976;29;20492;-84
2023/04/25 02:18:39;;;;;;;11.50;2.15;;;;;;;;;;4825847;29;20172;-84
2023/04/25 02:21:05;;;;;;;8.88;1.67;;;;;;;;;;4824776;29;20034;-84
2023/04/25 02:23:31;;;;;;;17.48;2.47;;;;;;;;;;4813250;29;20581;-84
2023/04/25 02:25:58;;;;;;;11.35;2.95;;;;;;;;;;4806430;29;20420;-84
2023/04/25 02:28:25;;;;;;;11.35;2.97;;;;;;;;;;4820109;29;20134;-84
2023/04/25 02:30:52;;;;;;;9.32;1.90;;;;;;;;;;4836053;29;20061;-84
2023/04/25 02:33:18;;;;;;;8.43;1.80;;;;;;;;;;4821133;29;20046;-84
2023/04/25 02:35:44;;;;;;;16.27;1.95;;;;;;;;;;4825072;29;20431;-84
2023/04/25 02:38:10;;;;;;;14.40;2.05;;;;;;;;;;4822276;29;20500;-84
2023/04/25 02:40:36;;;;;;;18.90;2.38;;;;;;;;;;4810387;29;20405;-84
2023/04/25 02:43:02;;;;;;;12.80;2.60;;;;;;;;;;4819459;29;20060;-84
2023/04/25 02:45:28;;;;;;;13.57;2.10;;;;;;;;;;4811503;29;20532;-84
2023/04/25 02:47:54;;;;;;;14.27;2.25;;;;;;;;;;4822095;29;20045;-83
2023/04/25 02:50:20;;;;;;;15.85;2.65;;;;;;;;;;4824122;29;20450;-82
2023/04/25 02:52:46;;;;;;;13.48;1.92;;;;;;;;;;4819260;29;20046;-83
2023/04/25 02:55:13;;;;;;;18.67;2.35;;;;;;;;;;4809837;29;20046;-83
2023/04/25 02:57:39;;;;;;;13.65;2.20;;;;;;;;;;4820534;29;20037;-84
2023/04/25 03:00:05;;;;;;;11.32;1.60;;;;;;;;;;4816396;29;20088;-84
2023/04/25 03:02:31;;;;;;;11.13;3.17;;;;;;;;;;4822496;29;20113;-85
2023/04/25 03:04:58;;;;;;;10.13;1.65;;;;;;;;;;4809270;29;20141;-83
2023/04/25 03:07:24;;;;;;;17.33;2.80;;;;;;;;;;4812708;29;20081;-83
2023/04/25 03:09:50;;;;;;;9.25;2.28;;;;;;;;;;4822246;29;20492;-83
2023/04/25 03:12:16;;;;;;;10.27;2.45;;;;;;;;;;4831971;29;20158;-83
2023/04/25 03:14:42;;;;;;;13.32;1.60;;;;;;;;;;4829986;29;20068;-84
2023/04/25 03:17:08;;;;;;;9.13;1.40;;;;;;;;;;4832958;29;20030;-83
2023/04/25 03:19:34;;;;;;;16.23;2.00;;;;;;;;;;4829877;29;20029;-83
2023/04/25 03:22:00;;;;;;;10.02;1.95;;;;;;;;;;4823180;29;20030;-83
2023/04/25 03:24:27;;;;;;;11.63;1.58;;;;;;;;;;4822698;29;20095;-83
2023/04/25 03:26:53;;;;;;;9.75;1.90;;;;;;;;;;4823113;29;20038;-84
2023/04/25 03:29:19;;;;;;;9.30;1.83;;;;;;;;;;4835667;29;20142;-84
2023/04/25 03:31:45;;;;;;;14.00;1.58;;;;;;;;;;4844245;29;20042;-84
2023/04/25 03:34:11;;;;;;;8.70;1.65;;;;;;;;;;4839279;29;20543;-83
2023/04/25 03:36:37;;;;;;;6.50;1.58;;;;;;;;;;4830861;29;20103;-83
2023/04/25 03:39:03;;;;;;;9.68;2.08;;;;;;;;;;4838251;29;20038;-85
2023/04/25 03:41:29;;;;;;;7.93;1.42;;;;;;;;;;4841437;29;20499;-84
2023/04/25 03:43:55;;;;;;;8.00;1.90;;;;;;;;;;4837863;29;20054;-83
2023/04/25 03:46:21;;;;;;;15.13;1.60;;;;;;;;;;4841754;29;20053;-83
2023/04/25 03:48:47;;;;;;;13.20;1.75;;;;;;;;;;4844040;29;20034;-83
2023/04/25 03:51:13;;;;;;;10.10;2.03;;;;;;;;;;4834429;29;20045;-83
2023/04/25 03:53:39;;;;;;;11.07;1.58;;;;;;;;;;4841402;29;20098;-83
2023/04/25 03:56:06;;;;;;;8.68;1.63;;;;;;;;;;4840393;29;20475;-84
2023/04/25 03:58:32;;;;;;;10.50;1.58;;;;;;;;;;4839895;29;20067;-84
2023/04/25 04:00:58;;;;;;;8.60;1.58;;;;;;;;;;4840293;29;20045;-83
2023/04/25 04:03:24;;;;;;;10.57;1.70;;;;;;;;;;4840331;29;20034;-83
2023/04/25 04:05:50;;;;;;;7.72;1.48;;;;;;;;;;4844930;29;20072;-83
2023/04/25 04:08:16;;;;;;;9.73;1.40;;;;;;;;;;4839105;29;20436;-84
2023/04/25 04:10:42;;;;;;;11.00;1.88;;;;;;;;;;4832826;29;20425;-81
2023/04/25 04:13:08;;;;;;;12.32;2.60;;;;;;;;;;4839755;29;20060;-84
2023/04/25 04:15:34;;;;;;;12.60;2.58;;;;;;;;;;5054233;24;20460;-88
2023/04/25 04:18:02;;;;;;;11.85;2.05;;;;;;;;;;4834792;29;20038;-83
2023/04/25 04:20:29;;;;;;;15.75;2.25;;;;;;;;;;4838779;29;20491;-84
2023/04/25 04:22:55;;;;;;;16.02;2.20;;;;;;;;;;4841973;29;20104;-83
2023/04/25 04:25:21;;;;;;;16.50;4.18;;;;;;;;;;4841392;29;20042;-83
2023/04/25 04:27:54;;;;;;;35.00;14.98;;;;;;;;;;4841091;29;20194;-90
2023/04/25 04:30:21;;;;;;;14.57;3.92;;;;;;;;;;4850561;29;20045;-80
2023/04/25 04:32:57;;;;;;;8.77;1.92;;;;;;;;;;4913760;24;20049;-83
2023/04/25 04:35:23;;;;;;;11.50;2.72;;;;;;;;;;4964332;24;20066;-87
2023/04/25 04:37:50;;;;;;;11.10;1.63;;;;;;;;;;4844507;24;20057;-84
2023/04/25 04:40:17;;;;;;;17.30;2.33;;;;;;;;;;4904502;23;20313;-80
2023/04/25 04:42:45;;;;;;;11.95;2.05;;;;;;;;;;4829410;29;20130;-86
2023/04/25 04:45:12;;;;;;;14.27;1.77;;;;;;;;;;4814193;29;20049;-79
2023/04/25 04:47:39;;;;;;;13.02;1.65;;;;;;;;;;4822845;29;20081;-81
2023/04/25 04:50:08;;;;;;;13.50;3.85;;;;;;;;;;4820562;29;20034;-85
2023/04/25 04:52:34;;;;;;;15.63;2.20;;;;;;;;;;4820864;29;20125;-83
2023/04/25 04:55:00;;;;;;;14.63;2.10;;;;;;;;;;4815547;29;20035;-83
2023/04/25 04:57:26;;;;;;;9.55;1.63;;;;;;;;;;4827066;29;20101;-85
2023/04/25 04:59:53;;;;;;;15.50;2.00;;;;;;;;;;4821941;29;20662;-85
2023/04/25 05:02:19;;;;;;;8.45;1.95;;;;;;;;;;4817706;29;20110;-82
2023/04/25 05:04:45;;;;;;;15.38;3.05;;;;;;;;;;4815600;29;20047;-82
2023/04/25 05:07:13;;;;;;;9.32;1.52;;;;;;;;;;4817269;29;20050;-82
2023/04/25 05:09:39;;;;;;;9.40;1.67;;;;;;;;;;4818145;29;20077;-83
2023/04/25 05:12:06;;;;;;;11.13;1.98;;;;;;;;;;4815039;29;20471;-87
2023/04/25 05:14:32;;;;;;;11.93;2.28;;;;;;;;;;4819126;29;20043;-80
2023/04/25 05:16:58;;;;;;;8.02;1.35;;;;;;;;;;4831816;29;20033;-78
2023/04/25 05:19:24;;;;;;;13.77;1.80;;;;;;;;;;4839573;29;20050;-84
2023/04/25 05:21:50;;;;;;;14.55;1.80;;;;;;;;;;4824335;29;20480;-82
2023/04/25 05:24:16;;;;;;;11.75;2.08;;;;;;;;;;4824955;29;20053;-85
2023/04/25 05:26:42;;;;;;;11.88;1.30;;;;;;;;;;4826143;29;20034;-84
2023/04/25 05:29:08;;;;;;;8.82;1.73;;;;;;;;;;4823171;29;20041;-76
2023/04/25 05:31:34;;;;;;;11.88;2.92;;;;;;;;;;4817919;29;20515;-86
2023/04/25 05:34:01;;;;;;;17.63;4.53;;;;;;;;;;4986866;24;20915;31
2023/04/25 05:36:27;;;;;;;25.00;11.30;;;;;;;;;;4948472;24;20096;-86
2023/04/25 05:38:53;;;;;;;12.18;2.25;;;;;;;;;;4840928;29;20070;-82
2023/04/25 05:41:20;;;;;;;10.68;2.13;;;;;;;;;;4859398;29;20042;-80
2023/04/25 05:43:49;;;;;;;7.80;1.25;;;;;;;;;;4848453;29;20130;-80
2023/04/25 05:46:16;;;;;;;10.68;1.75;;;;;;;;;;4847968;29;20070;-77
2023/04/25 05:48:43;;;;;;;9.48;2.33;;;;;;;;;;4834305;29;20402;-77
2023/04/25 05:51:09;;;;;;;9.05;1.75;;;;;;;;;;4854123;29;20025;-79
2023/04/25 05:53:35;;;;;;;9.68;1.73;;;;;;;;;;4864989;29;20375;-79
2023/04/25 05:56:01;;;;;;;13.23;2.35;;;;;;;;;;4852360;29;20065;-81
2023/04/25 05:58:28;;;;;;;17.52;2.35;;;;;;;;;;4853642;29;20108;-81
2023/04/25 06:00:55;;;;;;;13.93;1.70;;;;;;;;;;4861184;29;20111;-81
2023/04/25 06:03:21;;;;;;;10.25;1.40;;;;;;;;;;4850252;29;20425;-81
2023/04/25 06:05:47;;;;;;;12.82;2.33;;;;;;;;;;4843631;29;20357;-77
2023/04/25 06:08:13;;;;;;;11.25;1.98;;;;;;;;;;4849551;29;20040;-82
2023/04/25 06:10:39;;;;;;;11.95;1.65;;;;;;;;;;4853775;29;20045;-83
2023/04/25 06:13:05;;;;;;;14.70;1.92;;;;;;;;;;4834664;29;20044;-86
2023/04/25 06:15:35;;;;;;;12.43;1.60;;;;;;;;;;4870269;29;20038;-85
2023/04/25 06:18:01;;;;;;;10.88;2.05;;;;;;;;;;4857007;29;20038;-83
2023/04/25 06:20:28;;;;;;;9.25;1.63;;;;;;;;;;4841524;29;20095;-86
2023/04/25 06:22:54;;;;;;;7.57;1.25;;;;;;;;;;4856368;29;20033;-81
2023/04/25 06:25:20;;;;;;;11.52;1.95;;;;;;;;;;4853035;29;20030;-85
2023/04/25 06:27:46;;;;;;;10.15;1.40;;;;;;;;;;4857612;29;20040;-82
2023/04/25 06:30:12;;;;;;;8.25;1.60;;;;;;;;;;4855104;29;20316;-84
2023/04/25 06:32:41;;;;;;;6.88;1.17;;;;;;;;;;4885451;29;20117;-87
2023/04/25 06:35:08;;;;;;;10.88;1.95;;;;;;;;;;4857111;29;20065;-88
2023/04/25 06:37:34;;;;;;;12.40;2.30;;;;;;;;;;4855346;29;20038;-84
2023/04/25 06:40:00;;;;;;;6.07;0.90;;;;;;;;;;4858078;29;20037;-78
2023/04/25 06:42:26;;;;;;;13.75;2.10;;;;;;;;;;4840667;29;20094;-84
2023/04/25 06:44:52;;;;;;;2.28;0.70;;;;;;;;;;4854310;29;20462;-80
2023/04/25 06:47:18;;;;;;;8.18;1.85;;;;;;;;;;4860259;29;20401;-81
2023/04/25 06:49:44;;;;;;;18.42;7.65;;;;;;;;;;4858423;29;20040;-80
2023/04/25 06:52:10;;;;;;;7.05;1.17;;;;;;;;;;4855904;29;20391;-80
2023/04/25 06:54:36;;;;;;;6.93;1.45;;;;;;;;;;4835182;29;20054;-76
2023/04/25 06:57:02;;;;;;;6.25;1.23;;;;;;;;;;4854704;29;20041;-75
2023/04/25 06:59:28;;;;;;;14.02;2.67;;;;;;;;;;4859834;29;20037;-75
2023/04/25 07:01:54;;;;;;;8.30;1.75;;;;;;;;;;4853678;29;20038;-75
2023/04/25 07:04:21;;;;;;;8.48;1.38;;;;;;;;;;4837891;29;20096;-77
2023/04/25 07:06:48;;;;;;;6.20;1.25;;;;;;;;;;4851870;29;20061;-77
2023/04/25 07:09:14;;;;;;;13.35;2.55;;;;;;;;;;4842111;29;20041;-78
2023/04/25 07:11:40;;;;;;;11.35;2.75;;;;;;;;;;4845894;29;20033;-77
2023/04/25 07:14:06;;;;;;;15.50;2.05;;;;;;;;;;4856205;29;20452;-78
2023/04/25 07:16:32;;;;;;;13.00;1.67;;;;;;;;;;4853520;29;20033;-77
2023/04/25 07:18:59;;;;;;;16.88;2.40;;;;;;;;;;4855985;29;20056;-79
2023/04/25 07:21:26;;;;;;;11.65;1.83;;;;;;;;;;4851985;29;20108;-78
2023/04/25 07:23:52;;;;;;;8.93;1.80;;;;;;;;;;4858394;29;20045;-76
2023/04/25 07:26:18;;;;;;;10.13;1.67;;;;;;;;;;4850573;29;20033;-78
2023/04/25 07:28:44;;;;;;;9.35;2.00;;;;;;;;;;4855939;29;20041;-80
2023/04/25 07:31:10;;;;;;;9.98;1.63;;;;;;;;;;4850870;29;20045;-80
2023/04/25 07:33:36;;;;;;;9.30;1.30;;;;;;;;;;4859948;29;20120;-76
2023/04/25 07:36:02;;;;;;;13.35;1.88;;;;;;;;;;4851873;29;20101;-78
2023/04/25 07:38:28;;;;;;;13.95;2.20;;;;;;;;;;4835345;29;20071;-77
2023/04/25 07:40:54;;;;;;;11.30;1.77;;;;;;;;;;4850067;29;20041;-78
2023/04/25 07:43:20;;;;;;;11.07;1.83;;;;;;;;;;4849065;29;20045;-76
2023/04/25 07:45:47;;;;;;;7.43;1.77;;;;;;;;;;4856789;29;20417;-79
2023/04/25 07:48:18;;;;;;;5.88;1.35;;;;;;;;;;4857643;29;20142;-80
2023/04/25 07:50:46;;;;;;;8.95;1.58;;;;;;;;;;4853214;29;20540;-78
2023/04/25 07:53:12;;;;;;;6.90;1.67;;;;;;;;;;4825878;29;20046;-80
2023/04/25 07:55:39;;;;;;;7.57;1.65;;;;;;;;;;4859880;29;20038;-82
2023/04/25 07:58:06;;;;;;;6.03;1.58;;;;;;;;;;4860030;29;20033;-78
2023/04/25 08:00:32;;;;;;;8.05;1.40;;;;;;;;;;4854230;29;20041;-81
2023/04/25 08:02:58;;;;;;;10.70;1.70;;;;;;;;;;4840497;29;20551;-81
2023/04/25 08:05:24;;;;;;;13.75;1.73;;;;;;;;;;4855316;29;20073;-81
2023/04/25 08:07:50;;;;;;;7.63;1.25;;;;;;;;;;4856422;29;20033;-83
2023/04/25 08:10:17;;;;;;;11.20;1.55;;;;;;;;;;4848991;29;20033;-79
2023/04/25 08:12:43;;;;;;;9.00;1.90;;;;;;;;;;4856857;29;20364;-78
2023/04/25 08:15:10;;;;;;;8.65;1.60;;;;;;;;;;4858617;29;20040;-79
2023/04/25 08:17:36;;;;;;;7.82;1.63;;;;;;;;;;4863644;29;20053;-83
2023/04/25 08:20:05;;;;;;;11.65;1.60;;;;;;;;;;4855000;29;20148;-77
2023/04/25 08:22:31;;;;;;;16.45;5.38;;;;;;;;;;4856667;29;20033;-81
2023/04/25 08:24:57;;;;;;;11.75;2.17;;;;;;;;;;4859238;29;20116;-80
2023/04/25 08:27:24;;;;;;;6.43;1.52;;;;;;;;;;4856905;29;20086;-80
2023/04/25 08:29:51;;;;;;;11.13;1.42;;;;;;;;;;4857119;29;20487;-82
2023/04/25 08:32:19;;;;;;;10.15;1.90;;;;;;;;;;4853780;29;20033;-77
2023/04/25 08:34:46;;;;;;;10.27;2.03;;;;;;;;;;4853683;29;20097;-78
2023/04/25 08:37:12;;;;;;;7.35;1.70;;;;;;;;;;4825096;29;20062;-79
2023/04/25 08:39:38;;;;;;;6.35;1.67;;;;;;;;;;4821311;29;20050;-79
2023/04/25 08:42:08;;;;;;;5.00;1.17;;;;;;;;;;4821383;29;20420;-80
2023/04/25 08:44:35;;;;;;;6.75;1.52;;;;;;;;;;4829729;29;20053;-80
2023/04/25 08:47:03;;;;;;;4.85;1.52;;;;;;;;;;4822068;29;20546;-80
2023/04/25 08:49:30;;;;;;;13.45;1.92;;;;;;;;;;4818825;29;20034;-79
2023/04/25 08:51:59;;;;;;;8.27;1.38;;;;;;;;;;4819274;29;20030;-79
2023/04/25 08:54:28;;;;;;;7.55;1.48;;;;;;;;;;4820348;29;20079;-79
2023/04/25 08:56:58;;;;;;;10.88;1.60;;;;;;;;;;4825852;29;20034;-79
2023/04/25 08:59:24;;;;;;;12.57;2.35;;;;;;;;;;4819656;29;20038;-79
2023/04/25 09:01:51;;;;;;;13.20;2.28;;;;;;;;;;4819096;29;20043;-79
2023/04/25 09:04:18;;;;;;;8.13;1.60;;;;;;;;;;4822954;29;20041;-79
2023/04/25 09:06:45;;;;;;;11.80;2.75;;;;;;;;;;4814365;29;20102;-81
2023/04/25 09:09:11;;;;;;;11.95;1.77;;;;;;;;;;4807981;29;20023;-80
2023/04/25 09:11:37;;;;;;;3.30;0.85;;;;;;;;;;4819002;29;20436;-81
2023/04/25 09:14:25;;;;;;;4.05;1.20;;;;;;;;;;4833808;29;20396;-80
2023/04/25 09:16:57;;;;;;;5.28;1.20;;;;;;;;;;4816177;29;20580;-80
2023/04/25 09:19:24;;;;;;;10.32;1.63;;;;;;;;;;4809532;29;20099;-80
2023/04/25 09:21:50;;;;;;;11.00;1.60;;;;;;;;;;4814288;29;20058;-81
2023/04/25 09:24:17;;;;;;;5.28;1.40;;;;;;;;;;4815150;29;20053;-80
2023/04/25 09:26:44;;;;;;;5.20;1.60;;;;;;;;;;4807365;29;20049;-80
2023/04/25 09:29:10;;;;;;;6.00;1.52;;;;;;;;;;4820056;29;20045;-82
2023/04/25 09:31:38;;;;;;;7.70;1.67;;;;;;;;;;4824835;29;20049;-81
2023/04/25 09:34:04;;;;;;;4.60;1.13;;;;;;;;;;4808753;29;20122;-80
2023/04/25 09:36:30;;;;;;;6.40;1.20;;;;;;;;;;4834922;29;20053;-80
2023/04/25 09:38:56;;;;;;;5.03;1.30;;;;;;;;;;4852769;29;20424;-81
2023/04/25 09:41:24;;;;;;;4.25;1.23;;;;;;;;;;4839890;29;20033;-80
2023/04/25 09:43:50;;;;;;;8.77;1.35;;;;;;;;;;4840888;29;20236;-80
2023/04/25 09:46:18;;;;;;;6.72;1.63;;;;;;;;;;4848604;29;20082;-79
2023/04/25 09:48:51;;;;;;;8.15;1.60;;;;;;;;;;4847543;29;20034;-80
2023/04/25 09:51:17;;;;;;;6.13;1.50;;;;;;;;;;4836233;29;20042;-79
2023/04/25 09:53:46;;;;;;;10.38;1.63;;;;;;;;;;4849925;29;20427;-78
2023/04/25 09:56:13;;;;;;;8.98;1.50;;;;;;;;;;4853682;29;20038;-78
2023/04/25 09:58:40;;;;;;;9.35;1.75;;;;;;;;;;4856018;29;20045;-84
2023/04/25 10:01:10;;;;;;;5.28;1.27;;;;;;;;;;4846908;29;20532;-79
2023/04/25 10:03:37;;;;;;;7.75;1.73;;;;;;;;;;4855281;29;20034;-77
2023/04/25 10:06:05;;;;;;;7.57;1.60;;;;;;;;;;4840312;29;20106;-76
2023/04/25 10:08:38;;;;;;;6.97;1.85;;;;;;;;;;4863575;29;20028;-76
2023/04/25 10:11:06;;;;;;;7.07;1.23;;;;;;;;;;4850779;29;20739;-75
2023/04/25 10:13:33;;;;;;;8.40;1.67;;;;;;;;;;4855176;29;20030;-76
2023/04/25 10:16:00;;;;;;;5.15;1.33;;;;;;;;;;4863233;29;20493;-75
2023/04/25 10:18:30;;;;;;;13.15;1.60;;;;;;;;;;4848324;29;20541;-80
2023/04/25 10:21:01;;;;;;;8.35;1.77;;;;;;;;;;4839323;29;20044;-81
2023/04/25 10:23:29;;;;;;;7.43;1.77;;;;;;;;;;4863576;29;20391;-81
2023/04/25 10:25:56;;;;;;;8.23;1.33;;;;;;;;;;4868057;29;20495;-76
2023/04/25 10:28:22;;;;;;;7.07;1.73;;;;;;;;;;4846102;29;20039;-78
2023/04/25 10:31:02;;;;;;;10.35;1.85;;;;;;;;;;4851626;29;20037;-77
2023/04/25 10:33:35;;;;;;;10.52;1.50;;;;;;;;;;4859769;29;20040;-76
2023/04/25 10:36:34;;;;;;;7.80;1.42;;;;;;;;;;4857521;29;20473;-77
2023/04/25 10:39:06;;;;;;;7.13;1.10;;;;;;;;;;4818256;29;20046;-77
2023/04/25 10:41:32;;;;;;;5.85;1.25;;;;;;;;;;4852605;29;20030;-76
2023/04/25 10:44:01;;;;;;;9.40;2.05;;;;;;;;;;4838475;29;20157;-76
2023/04/25 10:46:31;;;;;;;11.68;1.90;;;;;;;;;;4868164;29;20479;-76
2023/04/25 10:49:02;;;;;;;8.73;1.98;;;;;;;;;;4845398;29;20033;-78
2023/04/25 10:51:29;;;;;;;9.60;3.55;;;;;;;;;;4836678;29;20037;-80
2023/04/25 10:54:02;;;;;;;9.23;3.17;;;;;;;;;;4857629;29;20483;-81
2023/04/25 10:56:32;;;;;;;6.47;1.50;;;;;;;;;;4859428;29;20109;-81
2023/04/25 10:59:13;;;;;;;6.72;1.15;;;;;;;;;;4851797;29;20061;-79
2023/04/25 11:01:40;;;;;;;11.48;1.70;;;;;;;;;;4857586;29;20279;-79
2023/04/25 11:04:06;;;;;;;5.55;1.15;;;;;;;;;;4855944;29;20245;-80
2023/04/25 11:06:38;;;;;;;5.35;1.27;;;;;;;;;;4859063;29;20029;-80
2023/04/25 11:09:12;;;;;;;6.53;1.30;;;;;;;;;;4855506;29;20037;-80
2023/04/25 11:11:38;;;;;;;4.65;1.00;;;;;;;;;;4858837;29;20421;-80
2023/04/25 11:14:04;;;;;;;11.65;1.63;;;;;;;;;;4858782;29;20072;-81
2023/04/25 11:16:32;;;;;;;9.32;1.10;;;;;;;;;;4855102;29;20124;-80
2023/04/25 11:18:58;;;;;;;10.25;1.90;;;;;;;;;;4857218;29;20120;-80
2023/04/25 11:21:27;;;;;;;6.78;1.23;;;;;;;;;;4855985;29;20032;-79
2023/04/25 11:23:54;;;;;;;9.10;1.73;;;;;;;;;;4853063;29;20030;-80
2023/04/25 11:26:20;;;;;;;8.48;2.10;;;;;;;;;;4857666;29;20041;-78
2023/04/25 11:28:46;;;;;;;5.40;1.20;;;;;;;;;;4853795;29;20080;-78
2023/04/25 11:31:13;;;;;;;10.77;1.67;;;;;;;;;;4854318;29;20065;-79
2023/04/25 11:33:40;;;;;;;7.05;1.40;;;;;;;;;;4851977;29;20041;-81
2023/04/25 11:36:07;;;;;;;4.30;1.13;;;;;;;;;;4859309;29;20061;-80
2023/04/25 11:38:34;;;;;;;12.43;2.22;;;;;;;;;;4856308;29;20046;-83
2023/04/25 11:41:00;;;;;;;4.82;1.70;;;;;;;;;;4857730;29;20038;-79
2023/04/25 11:43:26;;;;;;;9.98;3.75;;;;;;;;;;4837764;29;20034;-83
2023/04/25 11:45:52;;;;;;;8.77;2.22;;;;;;;;;;4861957;29;20192;-76
2023/04/25 11:48:20;;;;;;;10.70;1.73;;;;;;;;;;4850984;29;20033;-76
2023/04/25 11:50:46;;;;;;;5.72;1.25;;;;;;;;;;4856338;29;20036;-78
2023/04/25 11:53:12;;;;;;;8.48;1.50;;;;;;;;;;4848131;29;20037;-78
2023/04/25 11:55:39;;;;;;;8.80;1.30;;;;;;;;;;4850676;29;20113;-78
2023/04/25 11:58:06;;;;;;;5.38;1.10;;;;;;;;;;4855567;29;20061;-78
2023/04/25 12:00:32;;;;;;;4.68;1.15;;;;;;;;;;4843557;29;20470;-78
2023/04/25 12:02:58;;;;;;;9.35;1.50;;;;;;;;;;4857332;29;20105;-78
2023/04/25 12:05:26;;;;;;;8.63;1.83;;;;;;;;;;4859112;29;20451;-79
2023/04/25 12:07:53;;;;;;;4.22;1.13;;;;;;;;;;4859466;29;20399;-79
2023/04/25 12:10:20;;;;;;;14.90;2.53;;;;;;;;;;4856031;29;20089;-80
2023/04/25 12:12:47;;;;;;;6.00;1.23;;;;;;;;;;4851253;29;20082;-75
2023/04/25 12:15:15;;;;;;;9.43;2.17;;;;;;;;;;4844838;29;20069;-79
2023/04/25 12:17:48;;;;;;;6.60;1.27;;;;;;;;;;4860062;29;20371;-75
2023/04/25 12:20:20;;;;;;;9.95;1.10;;;;;;;;;;4852327;29;20044;-75
2023/04/25 12:22:47;;;;;;;9.00;2.23;;;;;;;;;;4833960;29;20062;-74
2023/04/25 12:25:14;;;;;;;7.70;1.67;;;;;;;;;;4855625;29;20038;-74
2023/04/25 12:27:43;;;;;;;10.70;2.28;;;;;;;;;;4837951;29;20030;-76
2023/04/25 12:30:10;;;;;;;7.47;1.08;;;;;;;;;;4849610;29;20033;-77
2023/04/25 12:32:37;;;;;;;6.55;1.60;;;;;;;;;;4864201;29;20049;-76
2023/04/25 12:35:03;;;;;;;12.48;1.95;;;;;;;;;;4857275;29;20570;-76
2023/04/25 12:37:30;;;;;;;11.07;1.55;;;;;;;;;;4856592;29;20178;-76
2023/04/25 12:39:56;;;;;;;6.78;1.60;;;;;;;;;;4831656;29;20459;-76
2023/04/25 12:42:22;;;;;;;7.60;1.77;;;;;;;;;;4846880;29;20074;-76
2023/04/25 12:44:48;;;;;;;5.32;1.65;;;;;;;;;;4852961;29;20037;-78
2023/04/25 12:47:15;;;;;;;8.07;1.63;;;;;;;;;;4875892;29;20044;-76
2023/04/25 12:49:41;;;;;;;7.03;1.20;;;;;;;;;;4855778;29;20502;-76
2023/04/25 12:52:07;;;;;;;6.28;1.13;;;;;;;;;;4858064;29;20033;-76
2023/04/25 12:54:33;;;;;;;5.32;1.30;;;;;;;;;;4847174;29;20097;-75
2023/04/25 12:56:59;;;;;;;7.28;1.23;;;;;;;;;;4849769;29;20470;-75
2023/04/25 12:59:25;;;;;;;10.35;1.90;;;;;;;;;;4847022;29;20078;-76
2023/04/25 13:01:51;;;;;;;7.32;1.70;;;;;;;;;;4854704;29;20030;-76
2023/04/25 13:04:19;;;;;;;6.43;1.30;;;;;;;;;;4844622;29;20049;-76
2023/04/25 13:06:45;;;;;;;8.88;1.75;;;;;;;;;;4850745;29;20040;-76
2023/04/25 13:09:12;;;;;;;13.93;2.45;;;;;;;;;;4857260;29;20029;-76
2023/04/25 13:11:38;;;;;;;7.00;1.67;;;;;;;;;;4851616;29;20030;-76
2023/04/25 13:14:05;;;;;;;6.82;1.40;;;;;;;;;;4848238;29;20037;-76
2023/04/25 13:16:31;;;;;;;10.13;1.40;;;;;;;;;;4864829;29;20550;-76
2023/04/25 13:18:57;;;;;;;13.77;2.65;;;;;;;;;;4857301;29;20038;-76
2023/04/25 13:21:23;;;;;;;7.65;1.33;;;;;;;;;;4855973;29;20422;-76
2023/04/25 13:23:49;;;;;;;6.43;1.30;;;;;;;;;;4846421;29;20042;-76
2023/04/25 13:26:15;;;;;;;6.97;1.60;;;;;;;;;;4857828;29;20037;-75
2023/04/25 13:28:41;;;;;;;7.65;1.38;;;;;;;;;;4857834;29;20037;-75
2023/04/25 13:31:07;;;;;;;7.30;1.40;;;;;;;;;;4866652;29;20041;-76
2023/04/25 13:33:33;;;;;;;9.45;2.40;;;;;;;;;;4869164;29;20517;-75
2023/04/25 13:36:01;;;;;;;3.75;1.00;;;;;;;;;;4855135;29;20053;-75
2023/04/25 13:38:27;;;;;;;4.97;1.20;;;;;;;;;;4837322;29;20082;-76
2023/04/25 13:40:53;;;;;;;9.73;1.90;;;;;;;;;;4853852;29;20041;-76
2023/04/25 13:43:21;;;;;;;8.02;1.52;;;;;;;;;;4846923;29;20030;-75
2023/04/25 13:45:48;;;;;;;16.55;2.45;;;;;;;;;;4863428;29;20073;-76
2023/04/25 13:48:14;;;;;;;11.60;2.17;;;;;;;;;;4870111;29;20029;-76
2023/04/25 13:50:40;;;;;;;10.68;1.30;;;;;;;;;;4855488;29;20029;-75
2023/04/25 13:53:06;;;;;;;10.82;1.10;;;;;;;;;;4858072;29;20364;-75
2023/04/25 13:55:32;;;;;;;9.57;1.58;;;;;;;;;;4867443;29;20056;-76
2023/04/25 13:57:59;;;;;;;11.05;1.40;;;;;;;;;;4851113;29;20037;-76
2023/04/25 14:00:25;;;;;;;12.00;2.22;;;;;;;;;;4852822;29;20089;-76
2023/04/25 14:02:51;;;;;;;13.23;2.45;;;;;;;;;;4839325;29;20033;-76
2023/04/25 14:05:17;;;;;;;7.10;1.95;;;;;;;;;;4860855;29;20136;-76
2023/04/25 14:07:43;;;;;;;8.65;1.70;;;;;;;;;;4859846;29;20116;-75
2023/04/25 14:10:09;;;;;;;11.40;1.70;;;;;;;;;;4861693;29;20072;-76
2023/04/25 14:12:36;;;;;;;8.18;1.55;;;;;;;;;;4861318;29;20034;-76
2023/04/25 14:15:02;;;;;;;8.32;1.58;;;;;;;;;;4858120;29;20133;-75
2023/04/25 14:17:28;;;;;;;8.98;1.38;;;;;;;;;;4864408;29;20048;-76
2023/04/25 14:19:54;;;;;;;8.15;1.48;;;;;;;;;;4847099;29;20582;-76
2023/04/25 14:22:20;;;;;;;13.27;1.67;;;;;;;;;;4846715;29;20029;-76
2023/04/25 14:24:46;;;;;;;10.55;1.92;;;;;;;;;;4864307;29;20044;-76
2023/04/25 14:27:16;;;;;;;10.27;1.60;;;;;;;;;;4862010;29;20038;-76
2023/04/25 14:29:42;;;;;;;6.07;1.42;;;;;;;;;;4855356;29;20034;-76
2023/04/25 14:32:09;;;;;;;4.28;0.93;;;;;;;;;;4838573;29;20399;-76
2023/04/25 14:34:35;;;;;;;10.27;1.67;;;;;;;;;;4850179;29;20120;-76